sensor_id;sensor_type;location;lat;lon;timestamp;P1;durP1;ratioP1;P2;durP2;ratioP2
79670;SDS011;69137;50.878;8.050;2024-03-07T00:02:16;24.60;;;11.02;;
79670;SDS011;69137;50.878;8.050;2024-03-07T00:04:42;23.85;;;10.68;;
79670;SDS011;69137;50.878;8.050;2024-03-07T00:07:08;21.33;;;11.10;;
79670;SDS011;69137;50.878;8.050;2024-03-07T00:09:34;20.88;;;10.75;;
79670;SDS011;69137;50.878;8.050;2024-03-07T00:11:59;22.70;;;10.23;;
79670;SDS011;69137;50.878;8.050;2024-03-07T00:14:28;21.83;;;10.43;;
79670;SDS011;69137;50.878;8.050;2024-03-07T00:16:56;23.50;;;10.67;;
79670;SDS011;69137;50.878;8.050;2024-03-07T00:19:24;23.50;;;11.63;;
79670;SDS011;69137;50.878;8.050;2024-03-07T00:21:52;27.50;;;10.98;;
79670;SDS011;69137;50.878;8.050;2024-03-07T00:24:17;25.92;;;11.77;;
79670;SDS011;69137;50.878;8.050;2024-03-07T00:26:43;32.67;;;15.73;;
79670;SDS011;69137;50.878;8.050;2024-03-07T00:29:09;31.00;;;15.70;;
79670;SDS011;69137;50.878;8.050;2024-03-07T00:31:35;36.15;;;17.13;;
79670;SDS011;69137;50.878;8.050;2024-03-07T00:34:01;23.77;;;11.95;;
79670;SDS011;69137;50.878;8.050;2024-03-07T00:36:26;23.50;;;12.03;;
79670;SDS011;69137;50.878;8.050;2024-03-07T00:38:51;25.47;;;12.07;;
79670;SDS011;69137;50.878;8.050;2024-03-07T00:41:17;24.98;;;11.85;;
79670;SDS011;69137;50.878;8.050;2024-03-07T00:43:42;25.73;;;12.70;;
79670;SDS011;69137;50.878;8.050;2024-03-07T00:46:08;29.02;;;11.00;;
79670;SDS011;69137;50.878;8.050;2024-03-07T00:48:35;20.52;;;11.13;;
79670;SDS011;69137;50.878;8.050;2024-03-07T00:51:01;25.10;;;11.53;;
79670;SDS011;69137;50.878;8.050;2024-03-07T00:53:26;23.87;;;10.93;;
79670;SDS011;69137;50.878;8.050;2024-03-07T00:55:51;21.70;;;11.47;;
79670;SDS011;69137;50.878;8.050;2024-03-07T00:58:17;23.60;;;11.05;;
79670;SDS011;69137;50.878;8.050;2024-03-07T01:00:43;26.70;;;12.03;;
79670;SDS011;69137;50.878;8.050;2024-03-07T01:03:08;24.87;;;11.63;;
79670;SDS011;69137;50.878;8.050;2024-03-07T01:05:36;27.45;;;12.18;;
79670;SDS011;69137;50.878;8.050;2024-03-07T01:08:02;32.60;;;12.88;;
79670;SDS011;69137;50.878;8.050;2024-03-07T01:10:27;27.15;;;12.70;;
79670;SDS011;69137;50.878;8.050;2024-03-07T01:12:53;25.42;;;11.15;;
79670;SDS011;69137;50.878;8.050;2024-03-07T01:15:22;29.63;;;10.40;;
79670;SDS011;69137;50.878;8.050;2024-03-07T01:17:48;23.60;;;11.73;;
79670;SDS011;69137;50.878;8.050;2024-03-07T01:20:13;24.37;;;11.20;;
79670;SDS011;69137;50.878;8.050;2024-03-07T01:22:38;27.40;;;11.55;;
79670;SDS011;69137;50.878;8.050;2024-03-07T01:25:04;30.83;;;12.85;;
79670;SDS011;69137;50.878;8.050;2024-03-07T01:27:31;25.63;;;12.02;;
79670;SDS011;69137;50.878;8.050;2024-03-07T01:29:56;23.00;;;11.68;;
79670;SDS011;69137;50.878;8.050;2024-03-07T01:32:22;29.58;;;13.80;;
79670;SDS011;69137;50.878;8.050;2024-03-07T01:34:47;25.30;;;11.00;;
79670;SDS011;69137;50.878;8.050;2024-03-07T01:37:12;31.27;;;12.50;;
79670;SDS011;69137;50.878;8.050;2024-03-07T01:39:38;30.60;;;11.77;;
79670;SDS011;69137;50.878;8.050;2024-03-07T01:42:03;20.83;;;10.37;;
79670;SDS011;69137;50.878;8.050;2024-03-07T01:44:29;20.30;;;10.82;;
79670;SDS011;69137;50.878;8.050;2024-03-07T01:46:56;23.52;;;12.13;;
79670;SDS011;69137;50.878;8.050;2024-03-07T01:49:22;23.33;;;11.50;;
79670;SDS011;69137;50.878;8.050;2024-03-07T01:51:48;21.67;;;10.53;;
79670;SDS011;69137;50.878;8.050;2024-03-07T01:54:13;20.23;;;9.15;;
79670;SDS011;69137;50.878;8.050;2024-03-07T01:56:38;25.70;;;10.85;;
79670;SDS011;69137;50.878;8.050;2024-03-07T01:59:05;24.63;;;11.30;;
79670;SDS011;69137;50.878;8.050;2024-03-07T02:01:32;23.25;;;11.70;;
79670;SDS011;69137;50.878;8.050;2024-03-07T02:03:58;21.35;;;11.27;;
79670;SDS011;69137;50.878;8.050;2024-03-07T02:06:23;22.77;;;11.37;;
79670;SDS011;69137;50.878;8.050;2024-03-07T02:08:50;24.52;;;10.88;;
79670;SDS011;69137;50.878;8.050;2024-03-07T02:11:16;22.02;;;11.32;;
79670;SDS011;69137;50.878;8.050;2024-03-07T02:13:41;23.17;;;11.48;;
79670;SDS011;69137;50.878;8.050;2024-03-07T02:16:07;29.80;;;12.70;;
79670;SDS011;69137;50.878;8.050;2024-03-07T02:18:35;20.58;;;11.52;;
79670;SDS011;69137;50.878;8.050;2024-03-07T02:21:05;22.42;;;11.10;;
79670;SDS011;69137;50.878;8.050;2024-03-07T02:23:31;24.98;;;10.55;;
79670;SDS011;69137;50.878;8.050;2024-03-07T02:25:57;24.20;;;11.07;;
79670;SDS011;69137;50.878;8.050;2024-03-07T02:28:22;24.93;;;12.00;;
79670;SDS011;69137;50.878;8.050;2024-03-07T02:30:47;26.43;;;13.70;;
79670;SDS011;69137;50.878;8.050;2024-03-07T02:33:13;27.43;;;13.47;;
79670;SDS011;69137;50.878;8.050;2024-03-07T02:35:38;29.07;;;11.77;;
79670;SDS011;69137;50.878;8.050;2024-03-07T02:38:03;25.03;;;11.67;;
79670;SDS011;69137;50.878;8.050;2024-03-07T02:40:30;26.65;;;13.32;;
79670;SDS011;69137;50.878;8.050;2024-03-07T02:42:56;25.02;;;12.57;;
79670;SDS011;69137;50.878;8.050;2024-03-07T02:45:21;22.17;;;11.00;;
79670;SDS011;69137;50.878;8.050;2024-03-07T02:47:49;23.08;;;11.13;;
79670;SDS011;69137;50.878;8.050;2024-03-07T02:50:14;22.70;;;11.05;;
79670;SDS011;69137;50.878;8.050;2024-03-07T02:52:40;23.25;;;12.68;;
79670;SDS011;69137;50.878;8.050;2024-03-07T02:55:05;24.58;;;11.07;;
79670;SDS011;69137;50.878;8.050;2024-03-07T02:57:35;20.08;;;10.77;;
79670;SDS011;69137;50.878;8.050;2024-03-07T03:00:00;24.95;;;11.32;;
79670;SDS011;69137;50.878;8.050;2024-03-07T03:02:26;27.60;;;11.55;;
79670;SDS011;69137;50.878;8.050;2024-03-07T03:04:51;23.53;;;12.13;;
79670;SDS011;69137;50.878;8.050;2024-03-07T03:07:16;28.53;;;12.30;;
79670;SDS011;69137;50.878;8.050;2024-03-07T03:09:42;24.52;;;11.68;;
79670;SDS011;69137;50.878;8.050;2024-03-07T03:12:08;26.33;;;12.15;;
79670;SDS011;69137;50.878;8.050;2024-03-07T03:14:34;22.48;;;10.45;;
79670;SDS011;69137;50.878;8.050;2024-03-07T03:16:59;27.35;;;12.25;;
79670;SDS011;69137;50.878;8.050;2024-03-07T03:19:25;23.02;;;11.90;;
79670;SDS011;69137;50.878;8.050;2024-03-07T03:21:51;26.98;;;13.80;;
79670;SDS011;69137;50.878;8.050;2024-03-07T03:24:17;34.25;;;14.30;;
79670;SDS011;69137;50.878;8.050;2024-03-07T03:26:42;29.92;;;13.77;;
79670;SDS011;69137;50.878;8.050;2024-03-07T03:29:07;28.50;;;14.03;;
79670;SDS011;69137;50.878;8.050;2024-03-07T03:31:34;31.60;;;15.35;;
79670;SDS011;69137;50.878;8.050;2024-03-07T03:34:00;29.85;;;14.25;;
79670;SDS011;69137;50.878;8.050;2024-03-07T03:36:26;28.58;;;13.95;;
79670;SDS011;69137;50.878;8.050;2024-03-07T03:38:51;27.87;;;13.03;;
79670;SDS011;69137;50.878;8.050;2024-03-07T03:41:16;31.93;;;14.37;;
79670;SDS011;69137;50.878;8.050;2024-03-07T03:43:42;32.63;;;14.52;;
79670;SDS011;69137;50.878;8.050;2024-03-07T03:46:09;32.67;;;14.85;;
79670;SDS011;69137;50.878;8.050;2024-03-07T03:48:35;33.10;;;14.57;;
79670;SDS011;69137;50.878;8.050;2024-03-07T03:51:00;34.00;;;16.03;;
79670;SDS011;69137;50.878;8.050;2024-03-07T03:53:26;27.33;;;13.80;;
79670;SDS011;69137;50.878;8.050;2024-03-07T03:55:51;30.87;;;13.00;;
79670;SDS011;69137;50.878;8.050;2024-03-07T03:58:16;29.67;;;13.50;;
79670;SDS011;69137;50.878;8.050;2024-03-07T04:00:41;25.13;;;12.43;;
79670;SDS011;69137;50.878;8.050;2024-03-07T04:03:07;28.57;;;12.73;;
79670;SDS011;69137;50.878;8.050;2024-03-07T04:05:32;27.03;;;14.27;;
79670;SDS011;69137;50.878;8.050;2024-03-07T04:07:57;30.70;;;12.70;;
79670;SDS011;69137;50.878;8.050;2024-03-07T04:10:23;29.38;;;13.65;;
79670;SDS011;69137;50.878;8.050;2024-03-07T04:12:49;26.15;;;12.50;;
79670;SDS011;69137;50.878;8.050;2024-03-07T04:15:15;29.10;;;13.33;;
79670;SDS011;69137;50.878;8.050;2024-03-07T04:17:43;28.40;;;13.45;;
79670;SDS011;69137;50.878;8.050;2024-03-07T04:20:11;21.85;;;11.88;;
79670;SDS011;69137;50.878;8.050;2024-03-07T04:22:38;26.05;;;13.23;;
79670;SDS011;69137;50.878;8.050;2024-03-07T04:25:06;28.75;;;12.48;;
79670;SDS011;69137;50.878;8.050;2024-03-07T04:27:33;32.08;;;13.43;;
79670;SDS011;69137;50.878;8.050;2024-03-07T04:30:01;31.42;;;14.23;;
79670;SDS011;69137;50.878;8.050;2024-03-07T04:32:28;36.67;;;14.85;;
79670;SDS011;69137;50.878;8.050;2024-03-07T04:34:54;28.20;;;14.10;;
79670;SDS011;69137;50.878;8.050;2024-03-07T04:37:22;28.17;;;13.43;;
79670;SDS011;69137;50.878;8.050;2024-03-07T04:39:47;25.83;;;13.38;;
79670;SDS011;69137;50.878;8.050;2024-03-07T04:42:12;30.87;;;12.73;;
79670;SDS011;69137;50.878;8.050;2024-03-07T04:44:38;29.40;;;15.13;;
79670;SDS011;69137;50.878;8.050;2024-03-07T04:47:04;29.05;;;14.88;;
79670;SDS011;69137;50.878;8.050;2024-03-07T04:49:30;28.02;;;12.07;;
79670;SDS011;69137;50.878;8.050;2024-03-07T04:51:57;27.08;;;13.18;;
79670;SDS011;69137;50.878;8.050;2024-03-07T04:54:23;26.63;;;13.32;;
79670;SDS011;69137;50.878;8.050;2024-03-07T04:56:50;27.85;;;12.52;;
79670;SDS011;69137;50.878;8.050;2024-03-07T04:59:17;23.67;;;11.70;;
79670;SDS011;69137;50.878;8.050;2024-03-07T05:01:44;27.25;;;13.43;;
79670;SDS011;69137;50.878;8.050;2024-03-07T05:04:11;23.85;;;12.65;;
79670;SDS011;69137;50.878;8.050;2024-03-07T05:06:38;30.80;;;13.15;;
79670;SDS011;69137;50.878;8.050;2024-03-07T05:09:03;28.77;;;14.43;;
79670;SDS011;69137;50.878;8.050;2024-03-07T05:11:30;22.63;;;12.23;;
79670;SDS011;69137;50.878;8.050;2024-03-07T05:13:56;27.60;;;13.55;;
79670;SDS011;69137;50.878;8.050;2024-03-07T05:16:22;25.30;;;12.52;;
79670;SDS011;69137;50.878;8.050;2024-03-07T05:18:52;28.17;;;12.77;;
79670;SDS011;69137;50.878;8.050;2024-03-07T05:21:18;27.02;;;13.05;;
79670;SDS011;69137;50.878;8.050;2024-03-07T05:24:02;23.92;;;12.70;;
79670;SDS011;69137;50.878;8.050;2024-03-07T05:26:28;27.00;;;13.00;;
79670;SDS011;69137;50.878;8.050;2024-03-07T05:28:58;26.35;;;12.48;;
79670;SDS011;69137;50.878;8.050;2024-03-07T05:31:30;26.83;;;13.27;;
79670;SDS011;69137;50.878;8.050;2024-03-07T05:33:59;30.25;;;12.15;;
79670;SDS011;69137;50.878;8.050;2024-03-07T05:36:24;24.92;;;13.40;;
79670;SDS011;69137;50.878;8.050;2024-03-07T05:38:49;29.27;;;12.93;;
79670;SDS011;69137;50.878;8.050;2024-03-07T05:41:15;29.13;;;12.97;;
79670;SDS011;69137;50.878;8.050;2024-03-07T05:43:40;25.43;;;13.43;;
79670;SDS011;69137;50.878;8.050;2024-03-07T05:46:06;30.52;;;14.57;;
79670;SDS011;69137;50.878;8.050;2024-03-07T05:48:36;24.40;;;12.68;;
79670;SDS011;69137;50.878;8.050;2024-03-07T05:51:01;29.10;;;14.55;;
79670;SDS011;69137;50.878;8.050;2024-03-07T05:53:27;26.77;;;12.45;;
79670;SDS011;69137;50.878;8.050;2024-03-07T05:55:53;23.73;;;12.23;;
79670;SDS011;69137;50.878;8.050;2024-03-07T05:58:19;26.98;;;13.55;;
79670;SDS011;69137;50.878;8.050;2024-03-07T06:00:47;32.70;;;13.38;;
79670;SDS011;69137;50.878;8.050;2024-03-07T06:03:18;27.23;;;12.57;;
79670;SDS011;69137;50.878;8.050;2024-03-07T06:05:47;28.05;;;13.10;;
79670;SDS011;69137;50.878;8.050;2024-03-07T06:08:15;30.73;;;13.57;;
79670;SDS011;69137;50.878;8.050;2024-03-07T06:10:43;29.73;;;13.68;;
79670;SDS011;69137;50.878;8.050;2024-03-07T06:13:13;31.55;;;15.30;;
79670;SDS011;69137;50.878;8.050;2024-03-07T06:15:39;26.67;;;13.68;;
79670;SDS011;69137;50.878;8.050;2024-03-07T06:18:05;31.35;;;15.40;;
79670;SDS011;69137;50.878;8.050;2024-03-07T06:20:33;36.25;;;16.67;;
79670;SDS011;69137;50.878;8.050;2024-03-07T06:22:59;26.83;;;12.57;;
79670;SDS011;69137;50.878;8.050;2024-03-07T06:25:28;26.90;;;13.82;;
79670;SDS011;69137;50.878;8.050;2024-03-07T06:28:02;25.98;;;12.85;;
79670;SDS011;69137;50.878;8.050;2024-03-07T06:30:37;26.95;;;15.10;;
79670;SDS011;69137;50.878;8.050;2024-03-07T06:33:04;27.58;;;12.98;;
79670;SDS011;69137;50.878;8.050;2024-03-07T06:35:30;33.83;;;14.18;;
79670;SDS011;69137;50.878;8.050;2024-03-07T06:37:55;31.47;;;14.40;;
79670;SDS011;69137;50.878;8.050;2024-03-07T06:40:20;30.57;;;14.80;;
79670;SDS011;69137;50.878;8.050;2024-03-07T06:42:47;26.35;;;14.18;;
79670;SDS011;69137;50.878;8.050;2024-03-07T06:45:13;29.17;;;15.38;;
79670;SDS011;69137;50.878;8.050;2024-03-07T06:47:38;28.97;;;13.30;;
79670;SDS011;69137;50.878;8.050;2024-03-07T06:50:03;35.33;;;13.40;;
79670;SDS011;69137;50.878;8.050;2024-03-07T06:52:29;27.55;;;13.80;;
79670;SDS011;69137;50.878;8.050;2024-03-07T06:54:54;35.97;;;13.97;;
79670;SDS011;69137;50.878;8.050;2024-03-07T06:57:20;27.25;;;14.05;;
79670;SDS011;69137;50.878;8.050;2024-03-07T06:59:46;28.20;;;14.07;;
79670;SDS011;69137;50.878;8.050;2024-03-07T07:02:11;35.30;;;16.50;;
79670;SDS011;69137;50.878;8.050;2024-03-07T07:04:36;35.03;;;15.60;;
79670;SDS011;69137;50.878;8.050;2024-03-07T07:07:09;33.08;;;16.02;;
79670;SDS011;69137;50.878;8.050;2024-03-07T07:09:37;29.80;;;14.95;;
79670;SDS011;69137;50.878;8.050;2024-03-07T07:12:03;28.88;;;14.30;;
79670;SDS011;69137;50.878;8.050;2024-03-07T07:14:29;31.55;;;15.10;;
79670;SDS011;69137;50.878;8.050;2024-03-07T07:16:54;30.00;;;15.25;;
79670;SDS011;69137;50.878;8.050;2024-03-07T07:19:21;34.58;;;15.45;;
79670;SDS011;69137;50.878;8.050;2024-03-07T07:21:47;27.70;;;15.63;;
79670;SDS011;69137;50.878;8.050;2024-03-07T07:24:14;32.00;;;14.88;;
79670;SDS011;69137;50.878;8.050;2024-03-07T07:26:40;30.73;;;14.95;;
79670;SDS011;69137;50.878;8.050;2024-03-07T07:29:05;29.73;;;15.17;;
79670;SDS011;69137;50.878;8.050;2024-03-07T07:31:30;40.40;;;18.40;;
79670;SDS011;69137;50.878;8.050;2024-03-07T07:33:57;31.10;;;15.75;;
79670;SDS011;69137;50.878;8.050;2024-03-07T07:36:22;34.30;;;17.73;;
79670;SDS011;69137;50.878;8.050;2024-03-07T07:38:48;36.10;;;16.77;;
79670;SDS011;69137;50.878;8.050;2024-03-07T07:41:13;32.15;;;17.15;;
79670;SDS011;69137;50.878;8.050;2024-03-07T07:43:39;29.75;;;16.00;;
79670;SDS011;69137;50.878;8.050;2024-03-07T07:46:05;27.88;;;15.02;;
79670;SDS011;69137;50.878;8.050;2024-03-07T07:48:30;29.37;;;15.33;;
79670;SDS011;69137;50.878;8.050;2024-03-07T07:50:56;28.50;;;14.47;;
79670;SDS011;69137;50.878;8.050;2024-03-07T07:53:21;32.90;;;15.03;;
79670;SDS011;69137;50.878;8.050;2024-03-07T07:55:46;36.10;;;15.90;;
79670;SDS011;69137;50.878;8.050;2024-03-07T07:58:13;33.50;;;16.67;;
79670;SDS011;69137;50.878;8.050;2024-03-07T08:00:39;32.80;;;16.25;;
79670;SDS011;69137;50.878;8.050;2024-03-07T08:03:05;28.05;;;14.18;;
79670;SDS011;69137;50.878;8.050;2024-03-07T08:05:34;29.15;;;15.70;;
79670;SDS011;69137;50.878;8.050;2024-03-07T08:08:04;28.67;;;15.45;;
79670;SDS011;69137;50.878;8.050;2024-03-07T08:10:31;29.85;;;15.02;;
79670;SDS011;69137;50.878;8.050;2024-03-07T08:12:58;32.90;;;16.38;;
79670;SDS011;69137;50.878;8.050;2024-03-07T08:15:25;28.15;;;15.23;;
79670;SDS011;69137;50.878;8.050;2024-03-07T08:17:53;33.92;;;16.83;;
79670;SDS011;69137;50.878;8.050;2024-03-07T08:20:20;27.60;;;14.88;;
79670;SDS011;69137;50.878;8.050;2024-03-07T08:22:47;31.98;;;16.00;;
79670;SDS011;69137;50.878;8.050;2024-03-07T08:25:16;30.38;;;15.10;;
79670;SDS011;69137;50.878;8.050;2024-03-07T08:27:43;26.95;;;14.45;;
79670;SDS011;69137;50.878;8.050;2024-03-07T08:30:11;33.35;;;15.30;;
79670;SDS011;69137;50.878;8.050;2024-03-07T08:32:40;28.25;;;14.60;;
79670;SDS011;69137;50.878;8.050;2024-03-07T08:35:07;33.75;;;14.32;;
79670;SDS011;69137;50.878;8.050;2024-03-07T08:37:37;30.30;;;11.68;;
79670;SDS011;69137;50.878;8.050;2024-03-07T08:40:03;26.75;;;13.55;;
79670;SDS011;69137;50.878;8.050;2024-03-07T08:42:31;28.60;;;13.52;;
79670;SDS011;69137;50.878;8.050;2024-03-07T08:44:58;24.05;;;11.43;;
79670;SDS011;69137;50.878;8.050;2024-03-07T08:47:24;28.75;;;13.63;;
79670;SDS011;69137;50.878;8.050;2024-03-07T08:49:49;23.70;;;10.75;;
79670;SDS011;69137;50.878;8.050;2024-03-07T08:52:15;23.47;;;11.80;;
79670;SDS011;69137;50.878;8.050;2024-03-07T08:54:40;19.00;;;9.63;;
79670;SDS011;69137;50.878;8.050;2024-03-07T08:57:05;25.70;;;12.13;;
79670;SDS011;69137;50.878;8.050;2024-03-07T08:59:32;27.30;;;12.13;;
79670;SDS011;69137;50.878;8.050;2024-03-07T09:01:58;28.05;;;12.35;;
79670;SDS011;69137;50.878;8.050;2024-03-07T09:04:26;17.77;;;10.07;;
79670;SDS011;69137;50.878;8.050;2024-03-07T09:06:52;23.75;;;11.48;;
79670;SDS011;69137;50.878;8.050;2024-03-07T09:09:17;23.83;;;10.90;;
79670;SDS011;69137;50.878;8.050;2024-03-07T09:11:43;24.10;;;11.45;;
79670;SDS011;69137;50.878;8.050;2024-03-07T09:14:09;24.55;;;11.40;;
79670;SDS011;69137;50.878;8.050;2024-03-07T09:16:35;24.98;;;12.13;;
79670;SDS011;69137;50.878;8.050;2024-03-07T09:19:01;24.45;;;11.77;;
79670;SDS011;69137;50.878;8.050;2024-03-07T09:21:26;24.30;;;11.87;;
79670;SDS011;69137;50.878;8.050;2024-03-07T09:23:51;22.20;;;10.23;;
79670;SDS011;69137;50.878;8.050;2024-03-07T09:26:17;22.87;;;11.13;;
79670;SDS011;69137;50.878;8.050;2024-03-07T09:28:42;19.20;;;10.40;;
79670;SDS011;69137;50.878;8.050;2024-03-07T09:31:07;19.37;;;9.00;;
79670;SDS011;69137;50.878;8.050;2024-03-07T09:33:33;23.20;;;9.95;;
79670;SDS011;69137;50.878;8.050;2024-03-07T09:35:59;22.73;;;10.43;;
79670;SDS011;69137;50.878;8.050;2024-03-07T09:38:24;18.97;;;9.17;;
79670;SDS011;69137;50.878;8.050;2024-03-07T09:40:50;21.48;;;11.15;;
79670;SDS011;69137;50.878;8.050;2024-03-07T09:43:17;24.67;;;10.30;;
79670;SDS011;69137;50.878;8.050;2024-03-07T09:45:44;20.45;;;10.02;;
79670;SDS011;69137;50.878;8.050;2024-03-07T09:48:12;22.65;;;10.77;;
79670;SDS011;69137;50.878;8.050;2024-03-07T09:50:38;22.08;;;9.93;;
79670;SDS011;69137;50.878;8.050;2024-03-07T09:53:04;19.80;;;10.52;;
79670;SDS011;69137;50.878;8.050;2024-03-07T09:55:29;20.45;;;10.10;;
79670;SDS011;69137;50.878;8.050;2024-03-07T09:57:56;20.73;;;11.02;;
79670;SDS011;69137;50.878;8.050;2024-03-07T10:02:54;16.98;;;8.95;;
79670;SDS011;69137;50.878;8.050;2024-03-07T10:05:23;21.45;;;9.85;;
79670;SDS011;69137;50.878;8.050;2024-03-07T10:07:52;20.42;;;10.63;;
79670;SDS011;69137;50.878;8.050;2024-03-07T10:10:17;17.98;;;8.50;;
79670;SDS011;69137;50.878;8.050;2024-03-07T10:12:44;19.40;;;9.13;;
79670;SDS011;69137;50.878;8.050;2024-03-07T10:15:10;17.17;;;9.67;;
79670;SDS011;69137;50.878;8.050;2024-03-07T10:17:37;19.60;;;8.63;;
79670;SDS011;69137;50.878;8.050;2024-03-07T10:20:04;27.35;;;9.75;;
79670;SDS011;69137;50.878;8.050;2024-03-07T10:22:34;15.77;;;7.97;;
79670;SDS011;69137;50.878;8.050;2024-03-07T10:25:01;14.25;;;8.48;;
79670;SDS011;69137;50.878;8.050;2024-03-07T10:27:28;20.85;;;10.23;;
79670;SDS011;69137;50.878;8.050;2024-03-07T10:29:54;14.63;;;8.48;;
79670;SDS011;69137;50.878;8.050;2024-03-07T10:32:20;21.17;;;9.15;;
79670;SDS011;69137;50.878;8.050;2024-03-07T10:34:46;20.25;;;10.05;;
79670;SDS011;69137;50.878;8.050;2024-03-07T10:37:13;17.88;;;8.48;;
79670;SDS011;69137;50.878;8.050;2024-03-07T10:39:42;16.60;;;8.75;;
79670;SDS011;69137;50.878;8.050;2024-03-07T10:42:14;19.17;;;10.10;;
79670;SDS011;69137;50.878;8.050;2024-03-07T10:44:43;18.13;;;9.48;;
79670;SDS011;69137;50.878;8.050;2024-03-07T10:47:11;22.42;;;9.32;;
79670;SDS011;69137;50.878;8.050;2024-03-07T10:49:44;17.65;;;9.13;;
79670;SDS011;69137;50.878;8.050;2024-03-07T10:52:29;13.60;;;7.82;;
79670;SDS011;69137;50.878;8.050;2024-03-07T10:55:08;17.50;;;9.07;;
79670;SDS011;69137;50.878;8.050;2024-03-07T10:57:54;18.48;;;9.18;;
79670;SDS011;69137;50.878;8.050;2024-03-07T11:00:26;20.90;;;10.27;;
79670;SDS011;69137;50.878;8.050;2024-03-07T11:03:00;17.70;;;9.23;;
79670;SDS011;69137;50.878;8.050;2024-03-07T11:05:27;21.55;;;9.50;;
79670;SDS011;69137;50.878;8.050;2024-03-07T11:07:58;22.40;;;11.45;;
79670;SDS011;69137;50.878;8.050;2024-03-07T11:10:24;16.77;;;8.38;;
79670;SDS011;69137;50.878;8.050;2024-03-07T11:12:50;13.25;;;7.72;;
79670;SDS011;69137;50.878;8.050;2024-03-07T11:15:16;17.52;;;8.63;;
79670;SDS011;69137;50.878;8.050;2024-03-07T11:17:45;15.05;;;9.50;;
79670;SDS011;69137;50.878;8.050;2024-03-07T11:20:25;17.80;;;9.43;;
79670;SDS011;69137;50.878;8.050;2024-03-07T11:22:52;16.27;;;8.88;;
79670;SDS011;69137;50.878;8.050;2024-03-07T11:25:21;16.73;;;9.30;;
79670;SDS011;69137;50.878;8.050;2024-03-07T11:27:57;19.25;;;10.38;;
79670;SDS011;69137;50.878;8.050;2024-03-07T11:30:24;19.58;;;10.50;;
79670;SDS011;69137;50.878;8.050;2024-03-07T11:32:50;15.45;;;9.18;;
79670;SDS011;69137;50.878;8.050;2024-03-07T11:35:20;18.65;;;8.95;;
79670;SDS011;69137;50.878;8.050;2024-03-07T11:37:56;16.42;;;7.68;;
79670;SDS011;69137;50.878;8.050;2024-03-07T11:42:49;14.63;;;7.28;;
79670;SDS011;69137;50.878;8.050;2024-03-07T11:45:16;19.02;;;9.10;;
79670;SDS011;69137;50.878;8.050;2024-03-07T11:47:53;14.38;;;8.65;;
79670;SDS011;69137;50.878;8.050;2024-03-07T11:50:31;13.65;;;7.88;;
79670;SDS011;69137;50.878;8.050;2024-03-07T11:53:00;13.85;;;8.38;;
79670;SDS011;69137;50.878;8.050;2024-03-07T11:55:26;15.05;;;8.18;;
79670;SDS011;69137;50.878;8.050;2024-03-07T11:57:53;15.82;;;8.02;;
79670;SDS011;69137;50.878;8.050;2024-03-07T12:00:19;14.00;;;8.15;;
79670;SDS011;69137;50.878;8.050;2024-03-07T12:02:45;17.33;;;8.07;;
79670;SDS011;69137;50.878;8.050;2024-03-07T12:05:13;10.15;;;6.68;;
79670;SDS011;69137;50.878;8.050;2024-03-07T12:07:40;11.85;;;6.95;;
79670;SDS011;69137;50.878;8.050;2024-03-07T12:10:06;12.63;;;6.97;;
79670;SDS011;69137;50.878;8.050;2024-03-07T12:12:32;12.02;;;7.28;;
79670;SDS011;69137;50.878;8.050;2024-03-07T12:14:58;13.73;;;7.13;;
79670;SDS011;69137;50.878;8.050;2024-03-07T12:17:24;14.23;;;7.28;;
79670;SDS011;69137;50.878;8.050;2024-03-07T12:19:50;12.32;;;6.55;;
79670;SDS011;69137;50.878;8.050;2024-03-07T12:22:19;13.32;;;6.13;;
79670;SDS011;69137;50.878;8.050;2024-03-07T12:24:48;11.68;;;6.32;;
79670;SDS011;69137;50.878;8.050;2024-03-07T12:27:27;13.00;;;6.75;;
79670;SDS011;69137;50.878;8.050;2024-03-07T12:29:53;14.38;;;6.97;;
79670;SDS011;69137;50.878;8.050;2024-03-07T12:32:18;13.63;;;7.00;;
79670;SDS011;69137;50.878;8.050;2024-03-07T12:34:44;13.77;;;6.88;;
79670;SDS011;69137;50.878;8.050;2024-03-07T12:37:12;12.15;;;6.47;;
79670;SDS011;69137;50.878;8.050;2024-03-07T12:39:44;12.25;;;6.75;;
79670;SDS011;69137;50.878;8.050;2024-03-07T12:42:17;15.70;;;8.10;;
79670;SDS011;69137;50.878;8.050;2024-03-07T12:44:43;13.23;;;6.97;;
79670;SDS011;69137;50.878;8.050;2024-03-07T12:47:12;12.50;;;6.35;;
79670;SDS011;69137;50.878;8.050;2024-03-07T12:49:44;14.27;;;6.53;;
79670;SDS011;69137;50.878;8.050;2024-03-07T12:52:10;13.07;;;6.95;;
79670;SDS011;69137;50.878;8.050;2024-03-07T12:54:40;12.88;;;7.00;;
79670;SDS011;69137;50.878;8.050;2024-03-07T12:57:06;13.25;;;6.95;;
79670;SDS011;69137;50.878;8.050;2024-03-07T12:59:35;12.88;;;7.15;;
79670;SDS011;69137;50.878;8.050;2024-03-07T13:02:10;13.60;;;6.75;;
79670;SDS011;69137;50.878;8.050;2024-03-07T13:04:37;13.55;;;7.25;;
79670;SDS011;69137;50.878;8.050;2024-03-07T13:07:03;16.48;;;6.93;;
79670;SDS011;69137;50.878;8.050;2024-03-07T13:09:32;11.90;;;5.97;;
79670;SDS011;69137;50.878;8.050;2024-03-07T13:11:58;13.57;;;6.78;;
79670;SDS011;69137;50.878;8.050;2024-03-07T13:14:25;15.32;;;8.05;;
79670;SDS011;69137;50.878;8.050;2024-03-07T13:16:55;13.10;;;6.90;;
79670;SDS011;69137;50.878;8.050;2024-03-07T13:19:23;17.07;;;7.80;;
79670;SDS011;69137;50.878;8.050;2024-03-07T13:21:50;15.30;;;7.00;;
79670;SDS011;69137;50.878;8.050;2024-03-07T13:24:17;14.35;;;7.10;;
79670;SDS011;69137;50.878;8.050;2024-03-07T13:26:42;15.67;;;7.77;;
79670;SDS011;69137;50.878;8.050;2024-03-07T13:29:08;11.88;;;6.30;;
79670;SDS011;69137;50.878;8.050;2024-03-07T13:31:34;13.38;;;7.00;;
79670;SDS011;69137;50.878;8.050;2024-03-07T13:34:00;15.13;;;8.43;;
79670;SDS011;69137;50.878;8.050;2024-03-07T13:36:27;16.80;;;8.05;;
79670;SDS011;69137;50.878;8.050;2024-03-07T13:38:53;15.02;;;7.63;;
79670;SDS011;69137;50.878;8.050;2024-03-07T13:41:20;16.95;;;7.90;;
79670;SDS011;69137;50.878;8.050;2024-03-07T13:43:47;16.80;;;8.73;;
79670;SDS011;69137;50.878;8.050;2024-03-07T13:46:13;14.15;;;6.93;;
79670;SDS011;69137;50.878;8.050;2024-03-07T13:48:39;17.10;;;7.55;;
79670;SDS011;69137;50.878;8.050;2024-03-07T13:51:07;16.80;;;7.35;;
79670;SDS011;69137;50.878;8.050;2024-03-07T13:53:33;15.85;;;7.97;;
79670;SDS011;69137;50.878;8.050;2024-03-07T13:56:16;14.95;;;7.45;;
79670;SDS011;69137;50.878;8.050;2024-03-07T14:04:14;17.20;;;8.73;;
79670;SDS011;69137;50.878;8.050;2024-03-07T14:06:42;18.13;;;9.30;;
79670;SDS011;69137;50.878;8.050;2024-03-07T14:12:28;17.77;;;8.57;;
79670;SDS011;69137;50.878;8.050;2024-03-07T14:32:50;16.85;;;7.15;;
79670;SDS011;69137;50.878;8.050;2024-03-07T14:35:23;14.25;;;7.45;;
79670;SDS011;69137;50.878;8.050;2024-03-07T14:40:40;17.98;;;7.85;;
79670;SDS011;69137;50.878;8.050;2024-03-07T14:43:05;14.77;;;7.27;;
79670;SDS011;69137;50.878;8.050;2024-03-07T14:45:38;15.32;;;7.78;;
79670;SDS011;69137;50.878;8.050;2024-03-07T14:48:05;14.43;;;7.28;;
79670;SDS011;69137;50.878;8.050;2024-03-07T14:50:34;16.70;;;7.43;;
79670;SDS011;69137;50.878;8.050;2024-03-07T14:53:02;17.33;;;7.97;;
79670;SDS011;69137;50.878;8.050;2024-03-07T14:55:29;17.55;;;8.82;;
79670;SDS011;69137;50.878;8.050;2024-03-07T14:57:55;14.35;;;8.00;;
79670;SDS011;69137;50.878;8.050;2024-03-07T15:00:20;18.73;;;9.07;;